Aérodrome :
LOGIN :

S'inscrire | Disclaimer

   EN    FR    IT 

 










Légende :    VFR   VFR Marginal   IFR   IFR Intensif   IFR Très Intensif
Visi : 
Plafond : 
>= 8 km
>= 3000ft
5 à 8 km
1000 à 3000 ft
1500m à 5 km
500 à 1000 ft
800 à 1500m
200 à 500 ft
< 800m
< 200 ft
Symboles :   Orages  Brouillard  Fortes neiges  Fortes précipitations  Vent > 20 kt
SIGMETs :   Divers  Orages  Givrage  Turbulence  Onde Orograph.  Cendres Volcan.







- Altitude de l'aérodrome : 297 ft
- Code IATA : UIP
- Voir les cartes d'approche


LFRQ - Quimper Pluguffan

DERNIER METAR :
  • 190430Z AUTO 00000KT 0650 0550 R28/0800U FG VV/// 00/00 Q1021

METARs EXPIRÉS :
  • 190400Z AUTO 00000KT 0450 0250 R28/0700N FG VV/// 01/01 Q1021
  • 190330Z AUTO 00000KT 0300 0250 R28/0650U FG VV/// 01/00 Q1021
  • 190300Z AUTO 00000KT 0750 0600 R28/1200D FG VV/// 01/01 Q1021
  • 190230Z AUTO 00000KT 0550 0450 R28/1000U FG VV/// 02/01 Q1021
  • 190200Z AUTO 00000KT 0550 0500 R28/1000U FG VV/// 02/02 Q1021

TAF TAF LFRQ
Valide du 18 à 18h jusqu'au 19 à 18h UTC


181700Z 1818/1918 VRB05KT 9999 FEW016TCU SCT030
PROB30
TEMPO 1903/1907 3000 MIFG
BECMG 1909/1912 18010KT
Pas de NOTAMs connus pour ce terrain.
2 SIGMETs publiés pour la FIR Brest (LFRR) :
 
Turbulence forte
LFRR SIGMET 2 VALID 190410/190800 LFPW
LFRR BREST FIR/UIR SEV TURB FCST WI N4630 W00130 - N4730 W00145 - N4830 W00015 - N4730 W00015 - N4630 W00130 FL180/280 MOV SE 10KT NC=
Turbulence forte
LFRR SIGMET 1 VALID 190400/190800 LFPW
LFRR BREST FIR/UIR SEV TURB FCST WI N4345 W00230 - N4415 W00500 - N4730 W00145 - N4630 W00145 - N4345 W00230 FL180/300 MOV SE 5KT NC=



MET'MAP, la Météo Aéronautique d'un coup d'oeil ! - Copyright ORBIFLY Décembre 2007 - Disclaimer

ORBIFLY MET'MAP TEAM :

Programmation & Développement : Alexandra Zaïnal
Conception & Développement : Baudouin d'Aumeries
Co-Programmation & Développement : Marc-Olivier Méhu
Soutien technique & logistique : Manuel Goepfert

Contact : metmap@orbifly.com




SOURCES & CREDITS :

   NOAA